Time;durP1;ratioP1;P1;durP2;ratioP2;P2;SDS_P1;SDS_P2;PMS_P1;PMS_P2;Temp;Humidity;BMP_temperature;BMP_pressure;BME280_temperature;BME280_humidity;BME280_pressure;Samples;Min_cycle;Max_cycle;Signal;HPM_P1;HPM_P2
2021/12/08 00:01:14;;;;;;;5.17;4.67;;;23.20;33.20;;;;;;5128652;27;40910;-50
2021/12/08 00:03:41;;;;;;;7.00;4.40;;;23.20;33.10;;;;;;5117094;27;36849;-50
2021/12/08 00:06:09;;;;;;;5.33;4.03;;;23.20;33.20;;;;;;5114548;27;37003;-50
2021/12/08 00:08:38;;;;;;;4.47;4.07;;;23.20;33.30;;;;;;5114597;28;41480;-49
2021/12/08 00:13:51;;;;;;;6.40;5.33;;;23.20;33.20;;;;;;5113882;28;37811;-50
2021/12/08 00:16:19;;;;;;;9.67;4.10;;;23.20;33.30;;;;;;5130799;27;37859;-49
2021/12/08 00:18:47;;;;;;;4.70;4.30;;;23.20;33.30;;;;;;5134827;27;40542;-50
2021/12/08 00:21:16;;;;;;;4.30;3.90;;;23.20;33.30;;;;;;5135200;27;40374;-50
2021/12/08 00:23:45;;;;;;;4.40;4.00;;;23.20;33.40;;;;;;5116727;27;37439;-49
2021/12/08 00:26:12;;;;;;;4.40;4.00;;;23.20;33.40;;;;;;5134859;27;37173;-50
2021/12/08 00:28:40;;;;;;;4.43;3.80;;;23.20;33.20;;;;;;5128555;27;40533;-50
2021/12/08 00:31:08;;;;;;;4.60;3.93;;;23.20;33.40;;;;;;5120717;27;40773;-50
2021/12/08 00:33:36;;;;;;;6.20;3.90;;;23.20;34.20;;;;;;5114082;28;37627;-49
2021/12/08 00:36:09;;;;;;;4.83;4.03;;;23.20;33.40;;;;;;5114238;28;36912;-50
2021/12/08 00:38:37;;;;;;;4.87;4.07;;;23.20;33.50;;;;;;5113618;28;41577;-50
2021/12/08 00:41:05;;;;;;;4.77;4.27;;;23.20;33.50;;;;;;5118801;27;39566;-50
2021/12/08 00:43:32;;;;;;;4.43;4.00;;;23.20;33.40;;;;;;5134237;27;37467;-50
2021/12/08 00:45:59;;;;;;;4.53;4.10;;;23.20;33.40;;;;;;5134430;27;38142;-50
2021/12/08 00:48:27;;;;;;;4.87;3.70;;;23.20;33.50;;;;;;5133735;27;41587;-50
2021/12/08 00:50:54;;;;;;;3.70;3.40;;;23.20;33.70;;;;;;5134778;27;39742;-50
2021/12/08 00:53:21;;;;;;;4.37;3.40;;;23.20;33.60;;;;;;5134515;27;37258;-50
2021/12/08 00:55:48;;;;;;;4.50;3.67;;;23.20;33.70;;;;;;5120615;27;36919;-50
2021/12/08 00:58:17;;;;;;;4.73;4.27;;;23.20;33.70;;;;;;5112930;28;40472;-50
2021/12/08 01:00:47;;;;;;;4.90;3.73;;;23.20;33.70;;;;;;5113629;28;39686;-50
2021/12/08 01:03:14;;;;;;;3.60;3.30;;;23.20;33.70;;;;;;5113749;28;37892;-50
2021/12/08 01:05:45;;;;;;;3.80;3.50;;;23.20;33.70;;;;;;5113370;28;37755;-50
2021/12/08 01:08:12;;;;;;;3.73;3.40;;;23.20;33.70;;;;;;5112744;28;40451;-50
2021/12/08 01:10:41;;;;;;;3.80;3.30;;;23.20;33.70;;;;;;5127905;27;39509;-50
2021/12/08 01:13:12;;;;;;;3.60;3.20;;;23.10;33.60;;;;;;5134077;27;38045;-50
2021/12/08 01:15:46;;;;;;;3.87;3.33;;;23.20;33.70;;;;;;5133748;27;36922;-50
2021/12/08 01:18:14;;;;;;;4.00;3.60;;;23.20;33.70;;;;;;5114955;27;40435;-50
2021/12/08 01:20:42;;;;;;;3.90;3.57;;;23.10;33.80;;;;;;5113371;28;40674;-50
2021/12/08 01:23:09;;;;;;;3.90;3.03;;;23.10;33.60;;;;;;5116906;27;37589;-50
2021/12/08 01:25:36;;;;;;;3.53;3.23;;;23.20;33.90;;;;;;5096081;27;36399;-50
2021/12/08 01:28:03;;;;;;;3.47;3.17;;;23.10;33.90;;;;;;5112627;28;40461;-50
2021/12/08 01:30:32;;;;;;;4.10;3.57;;;23.10;33.80;;;;;;5113656;28;40861;-49
2021/12/08 01:33:01;;;;;;;4.17;3.67;;;23.10;33.80;;;;;;5113501;28;38444;-50
2021/12/08 01:35:28;;;;;;;4.40;3.33;;;23.20;34.10;;;;;;5113264;28;37031;-50
2021/12/08 01:37:55;;;;;;;3.50;3.20;;;23.20;34.00;;;;;;5112578;28;40283;-50
2021/12/08 01:40:22;;;;;;;3.20;2.90;;;23.10;34.00;;;;;;5127349;27;40636;-50
2021/12/08 01:42:53;;;;;;;3.20;2.90;;;23.20;34.80;;;;;;5114479;27;37344;-50
2021/12/08 01:48:11;;;;;;;3.80;3.20;;;23.20;34.10;;;;;;5111669;28;42082;-50
2021/12/08 01:50:39;;;;;;;2.90;2.70;;;23.20;34.10;;;;;;5112360;28;40139;-50
2021/12/08 01:53:08;;;;;;;2.80;2.60;;;23.20;34.20;;;;;;5113181;28;37450;-50
2021/12/08 01:55:35;;;;;;;3.93;2.97;;;23.10;34.10;;;;;;5112934;27;38508;-50
2021/12/08 01:58:03;;;;;;;3.07;2.80;;;23.10;34.10;;;;;;5112757;28;40523;-50
2021/12/08 02:00:36;;;;;;;3.13;2.80;;;23.20;34.20;;;;;;5111957;27;40569;-49
2021/12/08 02:03:03;;;;;;;3.27;2.97;;;23.10;34.20;;;;;;5113062;28;38010;-49
2021/12/08 02:05:32;;;;;;;3.17;2.87;;;23.10;34.00;;;;;;5112835;28;37880;-50
2021/12/08 02:07:59;;;;;;;2.87;2.60;;;23.10;34.20;;;;;;5119097;27;40438;-50
2021/12/08 02:10:27;;;;;;;3.00;2.70;;;23.10;34.30;;;;;;5133353;27;40698;-50
2021/12/08 02:12:55;;;;;;;3.00;2.80;;;23.10;34.20;;;;;;5133584;27;37947;-50
2021/12/08 02:15:22;;;;;;;2.93;2.60;;;23.10;34.20;;;;;;5132892;27;38071;-49
2021/12/08 02:17:53;;;;;;;2.30;2.10;;;23.10;34.30;;;;;;5118299;27;41781;-50
2021/12/08 02:20:22;;;;;;;3.23;2.87;;;23.10;34.30;;;;;;5111756;28;40602;-49
2021/12/08 02:22:51;;;;;;;2.50;2.30;;;23.10;34.40;;;;;;5119748;27;37375;-50
2021/12/08 02:25:20;;;;;;;4.57;2.17;;;23.10;34.50;;;;;;5132871;27;38094;-50
2021/12/08 02:27:48;;;;;;;2.93;2.53;;;23.10;34.40;;;;;;5132533;27;40457;-50
2021/12/08 02:30:23;;;;;;;2.33;2.13;;;23.10;34.50;;;;;;5132350;27;39183;-50
2021/12/08 02:46:45;;;;;;;2.90;2.20;;;23.10;34.80;;;;;;5125778;27;37708;-50
2021/12/08 02:49:13;;;;;;;2.70;2.40;;;23.10;34.90;;;;;;5111173;28;40373;-50
2021/12/08 02:51:43;;;;;;;2.90;2.33;;;23.10;34.80;;;;;;5111630;28;40738;-50
2021/12/08 02:54:12;;;;;;;2.60;2.40;;;23.10;34.70;;;;;;5111878;28;37513;-50
2021/12/08 02:56:39;;;;;;;2.30;2.10;;;23.10;34.90;;;;;;5111976;28;38214;-49
2021/12/08 02:59:07;;;;;;;2.47;2.27;;;23.10;34.80;;;;;;5112141;28;40518;-50
2021/12/08 03:01:36;;;;;;;3.50;2.70;;;23.10;34.90;;;;;;5112062;27;40671;-49
2021/12/08 03:04:04;;;;;;;4.63;2.47;;;23.10;34.90;;;;;;5111684;28;37591;-50
2021/12/08 03:06:32;;;;;;;3.33;2.50;;;23.10;34.90;;;;;;5111736;28;37961;-50
2021/12/08 03:08:59;;;;;;;2.47;2.27;;;23.10;34.90;;;;;;5111888;28;40521;-50
2021/12/08 03:11:28;;;;;;;2.53;2.30;;;23.10;35.00;;;;;;5111833;28;39685;-50
2021/12/08 03:14:02;;;;;;;3.23;2.43;;;23.10;35.60;;;;;;5111647;28;37591;-50
2021/12/08 03:16:29;;;;;;;3.10;2.90;;;23.10;35.00;;;;;;5120293;27;37973;-50
2021/12/08 03:18:56;;;;;;;2.90;2.70;;;23.10;35.10;;;;;;5111729;27;41328;-50
2021/12/08 03:21:29;;;;;;;2.63;2.43;;;23.10;35.00;;;;;;5111898;28;40621;-50
2021/12/08 03:24:08;;;;;;;2.43;2.10;;;23.10;35.10;;;;;;5111792;28;36983;-50
2021/12/08 03:26:46;;;;;;;2.67;2.47;;;23.00;35.00;;;;;;5111139;28;37866;-50
2021/12/08 03:29:23;;;;;;;2.40;2.10;;;23.00;35.00;;;;;;5110761;28;40445;-50
2021/12/08 03:31:53;;;;;;;2.37;2.17;;;23.00;35.00;;;;;;5116601;27;40471;-50
2021/12/08 03:34:23;;;;;;;3.23;3.00;;;23.00;35.00;;;;;;5131435;27;37815;-50
2021/12/08 03:36:51;;;;;;;3.30;3.07;;;23.00;34.90;;;;;;5132181;27;36416;-49
2021/12/08 03:39:18;;;;;;;2.67;2.40;;;23.00;34.90;;;;;;5132084;27;41353;-50
2021/12/08 03:41:47;;;;;;;3.90;2.73;;;23.00;35.00;;;;;;5132262;27;39731;-50
2021/12/08 03:44:14;;;;;;;2.47;2.27;;;23.00;35.00;;;;;;5132091;27;37400;-50
2021/12/08 03:46:43;;;;;;;2.43;2.17;;;23.00;35.00;;;;;;5125211;27;37034;-50
2021/12/08 03:49:14;;;;;;;2.40;2.10;;;23.00;35.00;;;;;;5111426;28;41470;-50
2021/12/08 03:51:42;;;;;;;2.13;2.00;;;23.00;35.00;;;;;;5110720;28;39892;-50
2021/12/08 03:54:10;;;;;;;2.60;2.40;;;23.00;35.00;;;;;;5111115;28;37748;-50
2021/12/08 03:56:37;;;;;;;2.13;1.93;;;23.00;35.00;;;;;;5111273;28;36787;-50
2021/12/08 03:59:07;;;;;;;2.30;2.10;;;23.00;35.10;;;;;;5110992;28;40462;-50
2021/12/08 04:01:35;;;;;;;2.30;2.10;;;23.00;35.00;;;;;;5114149;27;40910;-50
2021/12/08 04:04:08;;;;;;;1.70;1.60;;;23.10;35.20;;;;;;5111073;28;37322;-50
2021/12/08 04:06:44;;;;;;;2.53;2.20;;;23.10;35.20;;;;;;5110680;28;36812;-50
2021/12/08 04:09:18;;;;;;;1.77;1.67;;;23.10;35.10;;;;;;5110145;28;40461;-50
2021/12/08 04:11:46;;;;;;;2.27;2.07;;;23.10;35.20;;;;;;5111072;28;39875;-50
2021/12/08 04:14:19;;;;;;;3.50;2.37;;;23.10;35.10;;;;;;5109908;28;38422;-50
2021/12/08 04:16:51;;;;;;;3.00;2.43;;;23.10;35.20;;;;;;5124768;27;36509;-50
2021/12/08 04:19:19;;;;;;;2.23;2.03;;;23.10;35.20;;;;;;5110358;28;41561;-49
2021/12/08 04:21:48;;;;;;;2.47;1.80;;;23.10;35.30;;;;;;5110664;27;40686;-50
2021/12/08 04:24:16;;;;;;;2.27;2.00;;;23.10;35.20;;;;;;5114493;28;37160;-50
2021/12/08 04:26:50;;;;;;;2.00;1.83;;;23.10;35.30;;;;;;5114339;28;36882;-50
2021/12/08 04:29:21;;;;;;;1.97;1.60;;;23.10;35.30;;;;;;5122831;27;40914;-50
2021/12/08 04:31:50;;;;;;;2.30;2.10;;;23.10;35.40;;;;;;5134413;27;39827;-50
2021/12/08 04:34:24;;;;;;;2.37;2.07;;;23.10;35.50;;;;;;5134691;27;38293;-50
2021/12/08 04:36:53;;;;;;;2.20;2.00;;;23.10;35.50;;;;;;5134701;27;36596;-50
2021/12/08 04:39:26;;;;;;;2.73;1.93;;;23.10;35.50;;;;;;5134862;27;40402;-50
2021/12/08 04:42:00;;;;;;;2.00;1.90;;;23.10;35.40;;;;;;5134864;27;40436;-50
2021/12/08 04:44:35;;;;;;;2.67;2.03;;;23.10;35.50;;;;;;5133242;27;37821;-50
2021/12/08 04:47:23;;;;;;;2.37;2.00;;;23.10;35.50;;;;;;5128248;27;36983;-49
2021/12/08 04:52:56;;;;;;;3.00;2.13;;;23.10;35.50;;;;;;5191659;27;20659;-50
2021/12/08 05:01:17;;;;;;;2.00;1.80;;;23.10;35.70;;;;;;5190852;27;40750;-50
2021/12/08 05:04:05;;;;;;;2.20;2.00;;;23.00;35.70;;;;;;5191427;27;39619;-50
2021/12/08 05:06:41;;;;;;;3.33;1.90;;;23.00;36.50;;;;;;5191708;27;37341;-50
2021/12/08 05:09:13;;;;;;;2.00;1.80;;;23.00;35.70;;;;;;5191592;27;37447;-50
2021/12/08 05:11:43;;;;;;;2.37;1.90;;;23.00;35.70;;;;;;5190814;27;41929;-50
2021/12/08 05:14:16;;;;;;;2.70;1.97;;;23.10;35.80;;;;;;5191945;27;39011;-50
2021/12/08 05:16:46;;;;;;;3.70;2.20;;;23.10;35.90;;;;;;5190244;27;37101;-50
2021/12/08 05:19:18;;;;;;;2.63;2.43;;;23.00;35.80;;;;;;5191920;27;36879;-50
2021/12/08 05:21:48;;;;;;;2.53;2.33;;;23.00;35.80;;;;;;5191107;27;40439;-50
2021/12/08 05:24:21;;;;;;;3.43;2.40;;;23.00;35.80;;;;;;5190724;27;40301;-50
2021/12/08 05:26:51;;;;;;;2.30;2.10;;;23.00;35.70;;;;;;5191094;27;38280;-50
2021/12/08 05:29:23;;;;;;;2.67;1.90;;;23.00;35.80;;;;;;5190057;27;36881;-50
2021/12/08 05:31:52;;;;;;;2.80;1.90;;;23.00;35.80;;;;;;5190238;27;41595;-50
2021/12/08 05:34:20;;;;;;;2.07;1.87;;;23.00;35.80;;;;;;5191024;27;40740;-50
2021/12/08 05:36:48;;;;;;;2.20;2.00;;;23.10;36.00;;;;;;5191046;27;37998;-50
2021/12/08 05:39:20;;;;;;;2.50;2.00;;;23.00;35.80;;;;;;5191503;27;37025;-50
2021/12/08 05:41:51;;;;;;;2.37;2.07;;;23.00;35.90;;;;;;5169853;27;40407;-50
2021/12/08 05:44:18;;;;;;;2.70;2.20;;;23.00;36.00;;;;;;5169082;27;39702;-50
2021/12/08 05:46:48;;;;;;;2.90;2.40;;;23.00;35.80;;;;;;5176587;27;37141;-50
2021/12/08 05:49:18;;;;;;;2.17;1.97;;;23.00;35.90;;;;;;5191335;27;37726;-50
2021/12/08 05:51:49;;;;;;;2.43;2.07;;;23.00;35.90;;;;;;5190076;27;41222;-50
2021/12/08 05:54:20;;;;;;;2.30;2.10;;;23.00;36.00;;;;;;5185076;27;39946;-50
2021/12/08 05:56:50;;;;;;;2.47;2.10;;;23.00;35.90;;;;;;5183872;27;37237;-49
2021/12/08 05:59:18;;;;;;;2.17;1.97;;;23.00;36.00;;;;;;5184869;27;37038;-49
2021/12/08 06:01:51;;;;;;;3.20;2.20;;;23.00;36.00;;;;;;5192516;27;41512;-50
2021/12/08 06:04:19;;;;;;;2.10;1.90;;;23.00;36.00;;;;;;5174998;27;39814;-50
2021/12/08 06:06:47;;;;;;;2.30;2.10;;;23.00;35.90;;;;;;5176174;27;38297;-50
2021/12/08 06:09:17;;;;;;;2.90;2.10;;;22.90;36.00;;;;;;5176914;27;37114;-49
2021/12/08 06:11:46;;;;;;;3.80;2.20;;;22.90;36.10;;;;;;5176225;27;40285;-50
2021/12/08 06:14:13;;;;;;;5.13;2.20;;;22.90;35.50;;;;;;5175380;27;39674;-49
2021/12/08 06:16:43;;;;;;;4.03;2.37;;;22.90;35.70;;;;;;5175800;27;37210;-49
2021/12/08 06:19:14;;;;;;;4.40;2.07;;;22.80;35.70;;;;;;5176574;27;36792;-49
2021/12/08 06:21:42;;;;;;;4.57;2.30;;;22.90;35.80;;;;;;5176039;27;40017;-49
2021/12/08 06:24:12;;;;;;;7.53;3.50;;;22.90;35.90;;;;;;5164007;27;39568;-49
2021/12/08 06:26:41;;;;;;;3.20;2.20;;;22.90;36.00;;;;;;5017848;27;37187;-49
2021/12/08 06:29:12;;;;;;;3.60;2.57;;;22.90;36.00;;;;;;5090262;27;36769;-51
2021/12/08 06:31:40;;;;;;;4.80;2.40;;;22.90;36.60;;;;;;5115303;27;41589;-49
2021/12/08 06:34:08;;;;;;;5.30;2.17;;;22.90;36.00;;;;;;5116092;27;39676;-49
2021/12/08 06:36:41;;;;;;;2.90;2.03;;;23.00;36.30;;;;;;5122561;27;37321;-50
2021/12/08 06:39:13;;;;;;;3.47;2.10;;;23.00;36.30;;;;;;5124133;27;38059;-51
2021/12/08 06:41:45;;;;;;;2.50;2.30;;;23.00;36.30;;;;;;5120306;27;40677;-50
2021/12/08 06:44:19;;;;;;;4.70;2.30;;;23.00;36.20;;;;;;5116698;27;40278;-50
2021/12/08 06:46:47;;;;;;;5.40;2.43;;;23.00;37.10;;;;;;5119521;27;36965;-50
2021/12/08 06:49:17;;;;;;;5.00;2.03;;;22.90;36.50;;;;;;5125018;27;37833;-51
2021/12/08 06:51:48;;;;;;;8.03;2.20;;;22.90;36.90;;;;;;5122235;27;41416;-49
2021/12/08 06:54:20;;;;;;;3.27;2.47;;;22.80;37.70;;;;;;5131282;27;39433;-48
2021/12/08 06:56:53;;;;;;;4.67;3.70;;;22.00;28.40;;;;;;5132046;27;37460;-48
2021/12/08 06:59:27;;;;;;;7.50;3.50;;;21.40;34.60;;;;;;5118991;27;37020;-49
2021/12/08 07:02:04;;;;;;;3.00;2.40;;;21.30;37.90;;;;;;5118413;27;41791;-49
2021/12/08 07:04:36;;;;;;;4.37;2.60;;;21.40;38.20;;;;;;5129176;27;39163;-49
2021/12/08 07:07:12;;;;;;;3.17;2.33;;;21.50;37.40;;;;;;5128974;27;38122;-49
2021/12/08 07:09:44;;;;;;;4.13;2.70;;;21.70;37.10;;;;;;5115766;27;38363;-54
2021/12/08 07:12:15;;;;;;;6.33;2.90;;;21.80;37.20;;;;;;5120190;27;40562;-50
2021/12/08 07:14:48;;;;;;;3.30;2.50;;;21.90;36.90;;;;;;5111967;27;40758;-49
2021/12/08 07:17:23;;;;;;;6.53;2.47;;;22.00;37.00;;;;;;5114656;27;37949;-50
2021/12/08 07:20:03;;;;;;;5.70;2.10;;;22.10;36.70;;;;;;5120842;27;35918;-49
2021/12/08 07:22:33;;;;;;;5.10;2.57;;;22.20;36.80;;;;;;5116452;27;40609;-50
2021/12/08 07:25:03;;;;;;;4.33;2.70;;;22.30;36.90;;;;;;5121096;27;40579;-49
2021/12/08 07:27:34;;;;;;;7.57;2.70;;;22.30;36.40;;;;;;5133992;27;37109;-50
2021/12/08 07:30:08;;;;;;;5.33;2.57;;;22.40;36.50;;;;;;5077366;27;37308;-49
2021/12/08 07:32:38;;;;;;;4.43;2.20;;;22.40;36.70;;;;;;5143426;27;41645;-51
2021/12/08 07:35:10;;;;;;;4.33;2.40;;;22.50;37.20;;;;;;5151837;27;39345;-50
2021/12/08 07:37:37;;;;;;;4.57;2.20;;;22.60;36.80;;;;;;5147951;27;37227;-50
2021/12/08 07:40:09;;;;;;;3.23;2.33;;;22.60;36.60;;;;;;5147973;27;37044;-50
2021/12/08 07:42:41;;;;;;;2.97;2.40;;;22.60;36.80;;;;;;5134289;27;40403;-50
2021/12/08 07:45:15;;;;;;;4.37;2.00;;;22.60;36.60;;;;;;5140957;27;39767;-50
2021/12/08 07:47:42;;;;;;;2.50;2.30;;;22.60;37.00;;;;;;5144045;27;37225;-49
2021/12/08 07:50:27;;;;;;;5.53;2.63;;;22.60;36.90;;;;;;5138024;27;36810;-49
2021/12/08 07:52:56;;;;;;;2.63;2.10;;;22.60;36.80;;;;;;5138117;27;40673;-50
2021/12/08 07:55:28;;;;;;;7.20;2.47;;;22.60;36.90;;;;;;5136451;27;39668;-50
2021/12/08 07:57:55;;;;;;;3.50;2.40;;;22.60;36.90;;;;;;5137851;27;37269;-49
2021/12/08 08:00:28;;;;;;;2.30;1.80;;;22.70;36.90;;;;;;5085751;27;36970;-49
2021/12/08 08:02:56;;;;;;;2.50;1.67;;;22.60;31.20;;;;;;5161995;27;41630;-49
2021/12/08 08:05:28;;;;;;;4.67;2.60;;;22.20;30.30;;;;;;5138843;27;39604;-49
2021/12/08 08:07:57;;;;;;;4.33;2.30;;;22.00;34.80;;;;;;5146510;27;38212;-50
2021/12/08 08:10:27;;;;;;;5.10;2.10;;;21.90;36.60;;;;;;5152996;27;37408;-49
2021/12/08 08:13:00;;;;;;;2.20;2.00;;;22.00;36.90;;;;;;5147875;27;40513;-50
2021/12/08 08:15:33;;;;;;;3.03;2.27;;;22.00;36.60;;;;;;5135951;27;40450;-50
2021/12/08 08:18:06;;;;;;;2.57;1.93;;;22.10;36.60;;;;;;5137537;27;37657;-50
2021/12/08 08:20:39;;;;;;;2.50;2.20;;;22.10;36.60;;;;;;5138415;27;36883;-49
2021/12/08 08:23:06;;;;;;;2.20;1.80;;;22.20;36.20;;;;;;5130886;27;40132;-49
2021/12/08 08:25:37;;;;;;;3.30;1.73;;;22.30;36.00;;;;;;5098075;27;39622;-49
2021/12/08 08:28:05;;;;;;;3.17;1.60;;;22.40;36.60;;;;;;5137321;27;38251;-49
2021/12/08 08:30:50;;;;;;;4.00;1.90;;;22.50;35.90;;;;;;5134995;27;38055;-49
2021/12/08 08:33:18;;;;;;;2.63;1.53;;;22.50;35.60;;;;;;5134145;27;41345;-50
2021/12/08 08:35:48;;;;;;;2.20;1.80;;;22.50;35.50;;;;;;5131804;27;40701;-49
2021/12/08 08:38:20;;;;;;;2.80;1.80;;;22.60;35.60;;;;;;5131581;27;37686;-49
2021/12/08 08:40:51;;;;;;;2.00;1.60;;;22.60;35.50;;;;;;5131896;27;37966;-50
2021/12/08 08:43:19;;;;;;;1.57;1.43;;;22.60;35.70;;;;;;5132830;27;41618;-49
2021/12/08 08:45:51;;;;;;;2.50;1.70;;;22.60;35.70;;;;;;5079132;27;39182;-50
2021/12/08 08:48:25;;;;;;;2.03;1.70;;;22.60;37.10;;;;;;5112302;27;38281;-50
2021/12/08 08:50:56;;;;;;;1.60;1.50;;;22.70;36.10;;;;;;5111105;28;37024;-50
2021/12/08 08:53:29;;;;;;;1.80;1.50;;;22.70;36.10;;;;;;5112460;27;40517;-49
2021/12/08 08:56:00;;;;;;;4.33;3.40;;;22.70;36.10;;;;;;5061732;27;38222;-49
2021/12/08 08:58:30;;;;;;;5.77;3.70;;;22.40;28.70;;;;;;5098712;27;37440;-49
2021/12/08 09:01:02;;;;;;;5.57;3.63;;;21.30;28.90;;;;;;5028291;27;48537;-48
2021/12/08 09:03:38;;;;;;;7.40;3.80;;;20.20;28.50;;;;;;4982741;27;40498;-50
